Time;durP1;ratioP1;P1;durP2;ratioP2;P2;SDS_P1;SDS_P2;PMS_P1;PMS_P2;Temp;Humidity;BMP_temperature;BMP_pressure;BME280_temperature;BME280_humidity;BME280_pressure;Samples;Min_cycle;Max_cycle;Signal;HPM_P1;HPM_P2
2022/02/11 00:02:19;;;;;;;;;21.67;18.67;;;;;;;;5135036;27;10475;-75
2022/02/11 00:05:06;;;;;;;;;19.00;18.00;;;;;;;;5115971;27;12640;-75
2022/02/11 00:07:32;;;;;;;;;19.00;16.00;;;;;;;;5134952;27;13284;-75
2022/02/11 00:09:57;;;;;;;;;18.67;14.33;;;;;;;;5135461;27;8842;-75
2022/02/11 00:12:23;;;;;;;;;18.00;12.33;;;;;;;;5135131;27;11534;-75
2022/02/11 00:15:36;;;;;;;;;17.00;17.00;;;;;;;;5134756;27;9586;-75
2022/02/11 00:17:39;;;;;;;;;20.00;20.00;;;;;;;;5126093;27;11462;-75
2022/02/11 00:20:05;;;;;;;;;15.33;15.33;;;;;;;;5121516;28;10345;-75
2022/02/11 00:22:30;;;;;;;;;19.00;15.00;;;;;;;;5121575;28;13372;-75
2022/02/11 00:24:55;;;;;;;;;19.33;18.67;;;;;;;;5121254;28;12747;-75
2022/02/11 00:35:33;;;;;;;;;18.67;16.67;;;;;;;;5120635;28;12702;-76
2022/02/11 00:38:04;;;;;;;;;20.33;18.33;;;;;;;;5120869;28;8915;-77
2022/02/11 00:46:11;;;;;;;;;15.00;15.00;;;;;;;;5120852;28;13291;-76
2022/02/11 00:53:34;;;;;;;;;19.67;18.67;;;;;;;;5120088;28;10598;-75
2022/02/11 01:04:41;;;;;;;;;15.00;14.00;;;;;;;;5120332;28;21489;-76
2022/02/11 01:07:07;;;;;;;;;19.67;16.67;;;;;;;;5120324;28;9517;-76
2022/02/11 01:09:33;;;;;;;;;14.67;14.67;;;;;;;;5120322;28;11554;-76
2022/02/11 01:12:02;;;;;;;;;15.00;15.00;;;;;;;;5121011;28;9189;-76
2022/02/11 01:14:37;;;;;;;;;17.00;17.00;;;;;;;;5119870;28;11722;-75
2022/02/11 01:20:01;;;;;;;;;15.00;14.00;;;;;;;;5119902;28;10750;-74
2022/02/11 01:25:33;;;;;;;;;18.33;15.00;;;;;;;;5120575;28;13311;-76
2022/02/11 01:28:31;;;;;;;;;23.67;16.33;;;;;;;;5119806;28;13366;-75
2022/02/11 02:23:43;;;;;;;;;15.33;14.00;;;;;;;;5120799;28;11401;-76
2022/02/11 02:26:43;;;;;;;;;15.33;14.67;;;;;;;;5120341;28;13440;-75
2022/02/11 02:57:53;;;;;;;;;13.33;10.00;;;;;;;;5119742;28;11425;-75
2022/02/11 03:17:57;;;;;;;;;16.00;13.33;;;;;;;;5119093;28;22183;-76
2022/02/11 04:52:47;;;;;;;;;16.67;16.00;;;;;;;;5058421;28;11646;-76
2022/02/11 04:55:00;;;;;;;;;13.67;13.67;;;;;;;;5058443;28;11401;-76
2022/02/11 05:00:14;;;;;;;;;10.67;8.33;;;;;;;;5121634;28;11540;-75
2022/02/11 05:02:40;;;;;;;;;1.00;0.00;;;;;;;;5121305;28;22122;-75
2022/02/11 05:05:08;;;;;;;;;14.33;13.67;;;;;;;;5121193;27;21846;-75
2022/02/11 05:07:33;;;;;;;;;16.67;15.67;;;;;;;;5120216;28;22648;-76
2022/02/11 05:09:59;;;;;;;;;18.33;15.67;;;;;;;;5121477;28;10322;-75
2022/02/11 05:12:24;;;;;;;;;19.33;14.67;;;;;;;;5120953;28;8901;-75
2022/02/11 05:14:49;;;;;;;;;16.67;12.00;;;;;;;;5121624;28;9484;-76
2022/02/11 05:17:15;;;;;;;;;16.00;16.00;;;;;;;;5121214;28;11359;-75
2022/02/11 05:19:43;;;;;;;;;14.67;14.67;;;;;;;;5119710;28;10136;-77
2022/02/11 05:22:08;;;;;;;;;15.33;15.33;;;;;;;;5119785;28;12115;-75
2022/02/11 05:24:33;;;;;;;;;20.33;18.00;;;;;;;;5101008;28;13542;-75
2022/02/11 05:26:59;;;;;;;;;16.00;12.67;;;;;;;;5119437;28;13240;-74
2022/02/11 05:29:24;;;;;;;;;16.00;13.67;;;;;;;;5119537;28;13225;-76
2022/02/11 05:31:50;;;;;;;;;18.00;16.00;;;;;;;;5120608;28;8816;-76
2022/02/11 05:34:15;;;;;;;;;13.00;13.00;;;;;;;;5101884;28;13585;-76
2022/02/11 05:36:41;;;;;;;;;13.00;11.33;;;;;;;;5120354;28;9927;-75
2022/02/11 05:39:06;;;;;;;;;15.00;13.00;;;;;;;;5120477;28;8891;-75
2022/02/11 05:41:31;;;;;;;;;16.00;14.00;;;;;;;;5120547;28;11369;-75
2022/02/11 05:43:57;;;;;;;;;15.67;12.67;;;;;;;;5101544;28;11023;-75
2022/02/11 05:46:23;;;;;;;;;18.00;15.50;;;;;;;;5102199;28;15027;-75
2022/02/11 05:48:48;;;;;;;;;21.50;19.00;;;;;;;;5119579;28;11385;-75
2022/02/11 05:51:14;;;;;;;;;18.00;16.00;;;;;;;;5119290;28;13467;-74
2022/02/11 05:53:39;;;;;;;;;20.25;17.00;;;;;;;;5118763;28;13547;-76
2022/02/11 05:56:05;;;;;;;;;14.50;14.00;;;;;;;;5118930;28;12191;-76
2022/02/11 05:58:31;;;;;;;;;21.00;15.00;;;;;;;;5100017;28;13712;-75
2022/02/11 06:00:57;;;;;;;;;21.25;18.00;;;;;;;;5118752;28;12285;-78
2022/02/11 06:03:24;;;;;;;;;18.00;18.00;;;;;;;;5119006;28;10217;-78
2022/02/11 06:05:49;;;;;;;;;18.75;15.75;;;;;;;;5118455;28;10775;-78
2022/02/11 06:08:15;;;;;;;;;21.25;16.00;;;;;;;;5100310;28;12337;-74
2022/02/11 06:10:40;;;;;;;;;15.75;14.00;;;;;;;;5118612;28;14645;-75
2022/02/11 06:13:06;;;;;;;;;17.75;15.50;;;;;;;;5100089;28;12007;-74
2022/02/11 06:15:32;;;;;;;;;20.00;15.00;;;;;;;;5118257;27;11421;-75
2022/02/11 06:17:57;;;;;;;;;21.50;19.00;;;;;;;;5118493;28;13249;-75
2022/02/11 06:20:27;;;;;;;;;21.00;18.25;;;;;;;;5118060;28;11047;-75
2022/02/11 06:22:53;;;;;;;;;19.50;19.00;;;;;;;;5118128;28;11712;-75
2022/02/11 06:25:19;;;;;;;;;19.50;16.50;;;;;;;;5118428;28;13822;-77
2022/02/11 06:27:44;;;;;;;;;21.25;16.00;;;;;;;;5114846;28;9529;-76
2022/02/11 06:30:10;;;;;;;;;24.00;21.00;;;;;;;;5117175;28;13228;-76
2022/02/11 06:32:36;;;;;;;;;27.50;21.00;;;;;;;;5118481;28;11937;-75
2022/02/11 06:35:01;;;;;;;;;20.50;19.25;;;;;;;;5118830;28;9981;-77
2022/02/11 06:37:35;;;;;;;;;24.25;19.50;;;;;;;;5119055;28;12259;-78
2022/02/11 06:40:01;;;;;;;;;20.50;19.00;;;;;;;;5099599;28;13487;-77
2022/02/11 06:42:26;;;;;;;;;19.50;18.25;;;;;;;;5119907;28;11489;-76
2022/02/11 06:44:51;;;;;;;;;31.00;26.00;;;;;;;;5119765;28;14705;-79
2022/02/11 06:47:17;;;;;;;;;24.25;22.25;;;;;;;;5119393;28;13231;-75
2022/02/11 06:49:42;;;;;;;;;25.00;23.50;;;;;;;;5120096;28;13222;-81
2022/02/11 06:52:08;;;;;;;;;25.50;21.75;;;;;;;;5119926;28;12805;-77
2022/02/11 06:54:33;;;;;;;;;24.75;22.50;;;;;;;;5119244;28;10568;-78
2022/02/11 06:56:58;;;;;;;;;33.25;30.25;;;;;;;;5117106;28;11707;-78
2022/02/11 06:59:24;;;;;;;;;25.50;21.75;;;;;;;;5097027;28;13917;-82
2022/02/11 07:01:52;;;;;;;;;24.33;22.33;;;;;;;;5099387;28;12379;-86
2022/02/11 07:04:17;;;;;;;;;35.33;27.33;;;;;;;;5082383;28;10496;-84
2022/02/11 07:06:43;;;;;;;;;24.00;19.67;;;;;;;;5098930;28;10959;-83
2022/02/11 07:09:08;;;;;;;;;24.00;24.00;;;;;;;;5100641;28;13907;-88
2022/02/11 07:11:33;;;;;;;;;27.67;27.00;;;;;;;;5100048;28;10389;-80
2022/02/11 07:13:58;;;;;;;;;25.67;23.33;;;;;;;;5098600;28;11056;-78
2022/02/11 07:16:24;;;;;;;;;26.00;23.67;;;;;;;;5099112;28;11377;-80
2022/02/11 07:18:49;;;;;;;;;25.67;23.33;;;;;;;;5080933;28;11424;-83
2022/02/11 07:21:14;;;;;;;;;28.00;26.33;;;;;;;;5099638;28;11383;-83
2022/02/11 07:23:40;;;;;;;;;29.67;25.33;;;;;;;;5099129;28;11655;-82
2022/02/11 07:26:05;;;;;;;;;25.00;20.33;;;;;;;;5105319;28;10532;-80
2022/02/11 07:28:30;;;;;;;;;26.33;24.33;;;;;;;;5119467;27;10353;-81
2022/02/11 07:30:58;;;;;;;;;30.33;24.33;;;;;;;;5122084;28;10360;-80
2022/02/11 07:33:23;;;;;;;;;22.00;20.00;;;;;;;;5121512;28;8819;-82
2022/02/11 07:35:50;;;;;;;;;28.33;25.33;;;;;;;;5120628;28;14413;-84
2022/02/11 07:38:15;;;;;;;;;28.00;28.00;;;;;;;;5121681;28;11963;-79
2022/02/11 07:40:40;;;;;;;;;28.33;25.00;;;;;;;;5118790;28;10510;-79
2022/02/11 07:43:06;;;;;;;;;26.00;23.67;;;;;;;;5120099;28;9721;-80
2022/02/11 07:45:36;;;;;;;;;30.00;24.33;;;;;;;;5120395;28;11416;-81
2022/02/11 07:48:03;;;;;;;;;16.00;14.00;;;;;;;;5118752;28;13316;-78
2022/02/11 07:50:29;;;;;;;;;17.00;14.00;;;;;;;;5121538;28;13411;-78
2022/02/11 07:52:54;;;;;;;;;20.33;19.00;;;;;;;;5121139;28;8816;-79
2022/02/11 07:55:20;;;;;;;;;23.33;22.00;;;;;;;;5120935;28;12754;-78
2022/02/11 07:57:45;;;;;;;;;33.00;29.33;;;;;;;;5120776;28;10111;-80
2022/02/11 08:00:10;;;;;;;;;30.67;30.00;;;;;;;;5118231;28;13358;-80
2022/02/11 08:02:36;;;;;;;;;37.33;29.67;;;;;;;;5120431;28;12400;-80
2022/02/11 08:05:02;;;;;;;;;29.33;26.00;;;;;;;;5101520;28;14212;-79
2022/02/11 08:07:28;;;;;;;;;32.00;26.67;;;;;;;;5120318;28;13488;-79
2022/02/11 08:09:53;;;;;;;;;28.00;26.00;;;;;;;;5120638;28;13884;-80
2022/02/11 08:12:18;;;;;;;;;26.00;22.67;;;;;;;;5121125;28;13471;-78
2022/02/11 08:14:44;;;;;;;;;24.00;24.00;;;;;;;;5121043;28;11457;-79
2022/02/11 08:17:09;;;;;;;;;21.00;19.00;;;;;;;;5102261;28;14258;-79
2022/02/11 08:19:34;;;;;;;;;29.33;26.33;;;;;;;;5121012;28;10190;-77
2022/02/11 08:22:00;;;;;;;;;41.00;34.67;;;;;;;;5121110;28;12352;-81
2022/02/11 08:24:25;;;;;;;;;35.67;31.67;;;;;;;;5120706;28;13480;-76
2022/02/11 08:26:50;;;;;;;;;29.33;26.33;;;;;;;;5120705;28;12344;-78
2022/02/11 08:29:21;;;;;;;;;29.33;27.67;;;;;;;;5120284;28;13400;-80
2022/02/11 08:31:46;;;;;;;;;36.33;32.67;;;;;;;;5120355;28;9292;-78
2022/02/11 08:34:11;;;;;;;;;50.00;41.33;;;;;;;;5121222;28;10384;-74
2022/02/11 08:36:36;;;;;;;;;24.33;21.33;;;;;;;;5117882;28;13276;-77
2022/02/11 08:39:02;;;;;;;;;30.33;30.33;;;;;;;;5118087;27;12662;-76
2022/02/11 08:41:27;;;;;;;;;36.00;34.00;;;;;;;;5118845;28;10850;-75
2022/02/11 08:43:52;;;;;;;;;34.67;31.00;;;;;;;;5119294;28;10904;-79
2022/02/11 08:46:23;;;;;;;;;30.33;27.33;;;;;;;;5118871;28;10368;-79
2022/02/11 08:48:48;;;;;;;;;36.00;32.00;;;;;;;;5096269;28;12883;-76
2022/02/11 08:51:14;;;;;;;;;31.67;27.33;;;;;;;;5118929;28;12277;-78
2022/02/11 08:53:40;;;;;;;;;33.33;26.00;;;;;;;;5120288;28;12521;-79
2022/02/11 08:56:06;;;;;;;;;33.67;33.00;;;;;;;;5119541;28;11396;-75
2022/02/11 08:58:32;;;;;;;;;37.33;34.00;;;;;;;;5119562;28;11572;-77
2022/02/11 09:00:57;;;;;;;;;28.00;28.00;;;;;;;;5119303;28;10409;-75
2022/02/11 09:03:23;;;;;;;;;35.67;32.00;;;;;;;;5118862;28;12344;-74
2022/02/11 09:05:48;;;;;;;;;38.33;37.00;;;;;;;;5118819;28;12404;-74
2022/02/11 09:08:13;;;;;;;;;36.33;34.00;;;;;;;;5119165;28;10590;-74
2022/02/11 09:10:39;;;;;;;;;45.00;36.67;;;;;;;;5100000;28;10909;-79
2022/02/11 09:13:04;;;;;;;;;33.00;33.00;;;;;;;;5118415;28;13296;-78
2022/02/11 09:15:30;;;;;;;;;37.00;32.67;;;;;;;;5099499;28;13574;-76
2022/02/11 09:17:56;;;;;;;;;39.67;34.67;;;;;;;;5119272;28;11427;-87
2022/02/11 09:20:21;;;;;;;;;40.00;37.00;;;;;;;;5101590;28;10700;-80
2022/02/11 09:22:47;;;;;;;;;39.00;30.67;;;;;;;;5118728;28;13517;-84
2022/02/11 09:25:13;;;;;;;;;40.33;37.00;;;;;;;;5118562;28;13466;-87
2022/02/11 09:27:48;;;;;;;;;51.67;45.33;;;;;;;;5119651;28;13302;-84
2022/02/11 09:30:18;;;;;;;;;62.00;49.67;;;;;;;;5120356;28;13361;-84
2022/02/11 09:32:44;;;;;;;;;34.67;34.00;;;;;;;;5119930;28;13545;-81
2022/02/11 09:35:10;;;;;;;;;35.00;31.67;;;;;;;;5101221;28;15289;-83
2022/02/11 09:37:36;;;;;;;;;42.33;41.00;;;;;;;;5120110;28;11805;-82
2022/02/11 09:40:06;;;;;;;;;40.67;38.67;;;;;;;;5120116;28;13597;-83
2022/02/11 09:42:32;;;;;;;;;41.33;39.33;;;;;;;;5105432;28;14680;-81
2022/02/11 09:44:58;;;;;;;;;44.33;38.67;;;;;;;;5125360;28;12644;-83
2022/02/11 09:47:24;;;;;;;;;37.00;33.67;;;;;;;;5120963;28;12064;-84
2022/02/11 09:49:49;;;;;;;;;32.00;29.33;;;;;;;;5118457;27;12177;-77
2022/02/11 09:52:15;;;;;;;;;35.00;31.00;;;;;;;;5118098;28;12196;-80
2022/02/11 09:54:41;;;;;;;;;27.67;27.00;;;;;;;;5118018;28;12198;-81
2022/02/11 09:57:06;;;;;;;;;28.67;28.67;;;;;;;;5118732;28;13592;-82
2022/02/11 09:59:32;;;;;;;;;35.00;30.00;;;;;;;;5118224;28;11383;-77
2022/02/11 10:01:59;;;;;;;;;37.00;30.67;;;;;;;;5118114;28;13765;-80
2022/02/11 10:04:25;;;;;;;;;41.33;33.33;;;;;;;;5119642;28;11506;-81
2022/02/11 10:06:52;;;;;;;;;30.67;27.33;;;;;;;;5093139;28;13555;-82
2022/02/11 10:09:24;;;;;;;;;36.33;33.33;;;;;;;;5106448;28;12335;-87
2022/02/11 10:11:50;;;;;;;;;30.67;24.33;;;;;;;;5098322;28;11708;-81
2022/02/11 10:14:18;;;;;;;;;32.33;29.33;;;;;;;;5099773;28;11490;-78
2022/02/11 10:17:03;;;;;;;;;39.00;35.33;;;;;;;;5080648;28;13856;-82
2022/02/11 10:19:38;;;;;;;;;42.00;37.33;;;;;;;;5119338;28;11603;-77
2022/02/11 10:22:07;;;;;;;;;38.67;35.33;;;;;;;;5118276;28;10677;-76
2022/02/11 10:24:32;;;;;;;;;45.33;37.67;;;;;;;;5118033;28;12691;-75
2022/02/11 10:26:58;;;;;;;;;44.67;35.33;;;;;;;;5117873;28;13387;-76
2022/02/11 10:29:23;;;;;;;;;35.33;34.00;;;;;;;;5117574;28;11495;-74
2022/02/11 10:31:48;;;;;;;;;40.67;32.67;;;;;;;;5118307;28;13229;-75
2022/02/11 10:34:18;;;;;;;;;43.33;35.67;;;;;;;;5118696;28;13263;-76
2022/02/11 10:36:47;;;;;;;;;36.67;35.33;;;;;;;;5119112;28;10871;-78
2022/02/11 10:39:15;;;;;;;;;28.67;21.00;;;;;;;;5100886;28;16516;-75
2022/02/11 10:41:54;;;;;;;;;31.00;27.00;;;;;;;;5100489;28;13819;-76
2022/02/11 10:44:27;;;;;;;;;31.67;30.33;;;;;;;;5118654;28;12662;-75
2022/02/11 10:46:54;;;;;;;;;41.00;31.33;;;;;;;;5119412;28;12310;-75
2022/02/11 10:49:29;;;;;;;;;29.33;25.00;;;;;;;;5119368;28;12645;-76
2022/02/11 10:51:54;;;;;;;;;27.33;25.00;;;;;;;;5118161;28;13603;-75
2022/02/11 10:54:23;;;;;;;;;29.00;24.33;;;;;;;;5118634;28;11448;-76
2022/02/11 10:56:49;;;;;;;;;25.33;21.33;;;;;;;;5117316;28;11820;-75
2022/02/11 10:59:22;;;;;;;;;28.25;23.25;;;;;;;;5119134;28;11431;-74
2022/02/11 11:01:48;;;;;;;;;27.00;25.33;;;;;;;;5118454;28;11590;-75
2022/02/11 11:04:13;;;;;;;;;30.33;27.00;;;;;;;;5099648;28;11462;-76
2022/02/11 11:06:39;;;;;;;;;23.00;21.50;;;;;;;;5117943;28;13393;-77
2022/02/11 11:09:05;;;;;;;;;27.00;26.00;;;;;;;;5119334;28;13271;-76
2022/02/11 11:11:32;;;;;;;;;27.00;27.00;;;;;;;;5118890;28;11458;-76
2022/02/11 11:13:58;;;;;;;;;25.00;22.00;;;;;;;;5119247;28;12509;-79
2022/02/11 11:16:25;;;;;;;;;24.25;21.50;;;;;;;;5118500;28;11469;-84
2022/02/11 11:18:50;;;;;;;;;26.75;24.75;;;;;;;;5118529;28;11840;-77
2022/02/11 11:21:16;;;;;;;;;29.75;24.00;;;;;;;;5118238;28;11557;-77
2022/02/11 11:23:52;;;;;;;;;8.75;5.50;;;;;;;;5100924;28;12196;-79
2022/02/11 11:26:18;;;;;;;;;30.25;26.50;;;;;;;;5100128;28;25099;-79
2022/02/11 11:28:46;;;;;;;;;32.25;31.25;;;;;;;;5099286;28;24480;-79
2022/02/11 11:31:13;;;;;;;;;25.25;20.75;;;;;;;;5100052;28;14518;-77
2022/02/11 11:33:38;;;;;;;;;31.50;29.50;;;;;;;;5117997;28;12339;-77
2022/02/11 11:36:08;;;;;;;;;34.50;31.75;;;;;;;;5099217;28;13665;-76
2022/02/11 11:38:38;;;;;;;;;31.75;29.50;;;;;;;;5118658;28;12600;-78
2022/02/11 11:41:20;;;;;;;;;29.00;26.00;;;;;;;;5118118;28;12289;-78
2022/02/11 11:43:45;;;;;;;;;30.25;28.00;;;;;;;;5117529;28;13571;-77
2022/02/11 11:46:16;;;;;;;;;31.00;27.50;;;;;;;;5117451;28;12696;-76
2022/02/11 11:49:00;;;;;;;;;30.25;29.75;;;;;;;;5118065;28;11467;-75
2022/02/11 11:51:28;;;;;;;;;11.00;9.00;;;;;;;;5117975;28;11520;-76
2022/02/11 11:54:11;;;;;;;;;45.75;37.00;;;;;;;;5118417;28;22723;-75
2022/02/11 11:56:37;;;;;;;;;34.00;29.25;;;;;;;;5117688;28;23815;-75
2022/02/11 11:59:12;;;;;;;;;29.50;27.25;;;;;;;;5117263;28;13662;-75
2022/02/11 12:01:51;;;;;;;;;28.00;26.00;;;;;;;;5118144;28;12277;-75
2022/02/11 12:04:24;;;;;;;;;29.50;25.00;;;;;;;;5099030;28;13729;-74
2022/02/11 12:06:52;;;;;;;;;24.00;22.00;;;;;;;;5117363;28;11908;-75
2022/02/11 12:09:18;;;;;;;;;24.00;22.75;;;;;;;;5117496;28;12061;-75
2022/02/11 12:11:43;;;;;;;;;27.00;20.50;;;;;;;;5117763;28;11539;-75
2022/02/11 12:14:09;;;;;;;;;19.25;19.25;;;;;;;;5118992;27;11380;-75
2022/02/11 12:16:34;;;;;;;;;21.25;19.75;;;;;;;;5102907;28;15734;-82
2022/02/11 12:18:59;;;;;;;;;23.25;19.00;;;;;;;;5103266;28;14347;-78
2022/02/11 12:21:25;;;;;;;;;19.00;19.00;;;;;;;;5122012;28;11434;-80
2022/02/11 12:29:20;;;;;;;;;17.00;15.25;;;;;;;;5117420;28;12416;-81
2022/02/11 12:31:52;;;;;;;;;18.50;16.50;;;;;;;;5120091;28;11723;-81
2022/02/11 12:34:17;;;;;;;;;19.00;18.00;;;;;;;;5117751;28;11553;-81
2022/02/11 12:36:43;;;;;;;;;16.50;15.50;;;;;;;;5100488;28;13418;-77
2022/02/11 12:39:15;;;;;;;;;14.50;13.00;;;;;;;;5119985;28;12503;-84
2022/02/11 12:41:44;;;;;;;;;15.25;13.75;;;;;;;;5083044;28;13898;-80
2022/02/11 12:44:10;;;;;;;;;25.75;20.75;;;;;;;;5118106;28;11696;-78
2022/02/11 12:46:35;;;;;;;;;16.50;10.00;;;;;;;;5119443;28;11515;-77
2022/02/11 12:49:01;;;;;;;;;11.75;11.50;;;;;;;;5120122;28;13279;-78
2022/02/11 12:51:26;;;;;;;;;8.00;6.00;;;;;;;;5119622;28;11528;-77
2022/02/11 12:54:01;;;;;;;;;8.75;8.75;;;;;;;;5119400;28;23397;-80
2022/02/11 12:56:34;;;;;;;;;8.00;8.00;;;;;;;;5100981;28;10684;-79
2022/02/11 12:59:06;;;;;;;;;7.00;5.25;;;;;;;;5116648;28;11474;-78
2022/02/11 13:01:32;;;;;;;;;9.25;7.00;;;;;;;;5118457;28;11513;-78
2022/02/11 13:03:58;;;;;;;;;10.25;10.25;;;;;;;;5119003;28;11512;-77
2022/02/11 13:06:24;;;;;;;;;10.50;10.50;;;;;;;;5098921;28;22685;-79
2022/02/11 13:08:58;;;;;;;;;14.50;12.00;;;;;;;;5118662;28;8812;-79
2022/02/11 13:11:27;;;;;;;;;12.00;10.50;;;;;;;;5116727;28;11555;-79
2022/02/11 13:14:04;;;;;;;;;12.00;10.75;;;;;;;;5120508;28;11562;-79
2022/02/11 13:16:29;;;;;;;;;10.25;10.25;;;;;;;;5118623;28;11581;-76
2022/02/11 13:18:55;;;;;;;;;11.00;10.25;;;;;;;;5118700;28;11575;-75
2022/02/11 13:21:21;;;;;;;;;16.50;10.00;;;;;;;;5119124;28;8845;-77
2022/02/11 13:23:50;;;;;;;;;9.25;9.00;;;;;;;;5120308;28;11454;-79
2022/02/11 13:26:15;;;;;;;;;10.00;9.00;;;;;;;;5101574;28;22765;-79
2022/02/11 13:28:45;;;;;;;;;14.00;12.00;;;;;;;;5120084;28;16750;-78
2022/02/11 13:31:10;;;;;;;;;13.50;13.50;;;;;;;;5119653;28;22139;-79
2022/02/11 13:33:36;;;;;;;;;11.50;10.75;;;;;;;;5119070;28;11459;-79
2022/02/11 13:36:06;;;;;;;;;13.75;12.75;;;;;;;;5112074;28;11361;-79
2022/02/11 13:38:32;;;;;;;;;10.00;9.25;;;;;;;;5106429;28;10441;-75
2022/02/11 13:41:03;;;;;;;;;11.25;10.25;;;;;;;;5098384;28;21812;-76
2022/02/11 13:43:45;;;;;;;;;11.50;11.00;;;;;;;;5098597;28;21760;-77
2022/02/11 13:46:10;;;;;;;;;15.75;13.00;;;;;;;;5099921;28;12478;-78
2022/02/11 13:48:50;;;;;;;;;10.00;9.00;;;;;;;;5117987;28;11581;-77
2022/02/11 13:51:17;;;;;;;;;10.00;9.00;;;;;;;;5119657;28;21416;-77
2022/02/11 13:53:52;;;;;;;;;10.00;8.25;;;;;;;;5119549;28;11532;-76
2022/02/11 13:56:36;;;;;;;;;10.00;8.25;;;;;;;;5119284;28;11421;-76
2022/02/11 13:59:03;;;;;;;;;10.00;9.50;;;;;;;;5120055;28;11454;-75
2022/02/11 14:01:30;;;;;;;;;6.50;6.50;;;;;;;;5120296;28;11407;-75
2022/02/11 14:04:22;;;;;;;;;8.25;8.25;;;;;;;;5119063;28;21862;-75
2022/02/11 14:06:50;;;;;;;;;5.25;5.00;;;;;;;;5112835;28;11468;-76
2022/02/11 14:09:35;;;;;;;;;7.50;6.25;;;;;;;;5097074;28;13929;-77
2022/02/11 14:12:00;;;;;;;;;4.75;4.75;;;;;;;;5116718;28;12737;-78
2022/02/11 14:14:25;;;;;;;;;4.50;3.50;;;;;;;;5117781;28;11528;-77
2022/02/11 14:16:51;;;;;;;;;5.00;5.00;;;;;;;;5117715;28;11420;-80
2022/02/11 14:19:27;;;;;;;;;4.25;4.00;;;;;;;;5117990;28;11315;-74
2022/02/11 14:21:59;;;;;;;;;5.50;4.50;;;;;;;;5117401;28;10379;-73
2022/02/11 14:24:26;;;;;;;;;5.50;4.00;;;;;;;;5118462;28;11451;-72
2022/02/11 14:26:52;;;;;;;;;4.00;4.00;;;;;;;;5117524;28;11416;-73
2022/02/11 14:29:18;;;;;;;;;5.50;4.25;;;;;;;;5117917;28;11446;-73
2022/02/11 14:31:45;;;;;;;;;4.50;4.50;;;;;;;;5119274;28;12713;-73
2022/02/11 14:34:10;;;;;;;;;4.00;4.00;;;;;;;;5119544;28;11922;-73
2022/02/11 14:36:38;;;;;;;;;5.75;4.75;;;;;;;;5119057;27;11607;-74
2022/02/11 14:39:03;;;;;;;;;5.50;5.00;;;;;;;;5115241;28;11676;-73
2022/02/11 14:41:47;;;;;;;;;9.00;6.00;;;;;;;;5116176;28;11408;-73
2022/02/11 14:45:59;;;;;;;;;9.00;8.00;;;;;;;;5126660;27;2282133;-74
2022/02/11 14:48:24;;;;;;;;;8.25;6.00;;;;;;;;5196662;27;21952;-74
2022/02/11 14:50:50;;;;;;;;;5.75;5.50;;;;;;;;5197448;27;11373;-76
2022/02/11 14:53:15;;;;;;;;;8.25;8.25;;;;;;;;5179005;27;12136;-82
2022/02/11 14:55:41;;;;;;;;;7.75;5.00;;;;;;;;5181001;27;11509;-84
2022/02/11 14:58:06;;;;;;;;;8.00;8.00;;;;;;;;5190022;27;11281;-82
2022/02/11 15:00:31;;;;;;;;;8.75;6.00;;;;;;;;5197864;27;10262;-85
2022/02/11 15:02:57;;;;;;;;;9.75;8.00;;;;;;;;5179545;27;11812;-79
2022/02/11 15:05:22;;;;;;;;;11.00;10.00;;;;;;;;5197886;27;9571;-78
2022/02/11 15:07:48;;;;;;;;;9.50;5.00;;;;;;;;5197332;27;22186;-77
2022/02/11 15:10:13;;;;;;;;;8.25;7.00;;;;;;;;5190108;27;22937;-75
2022/02/11 15:12:39;;;;;;;;;10.50;7.50;;;;;;;;5196528;27;10314;-76
2022/02/11 15:15:04;;;;;;;;;8.75;8.75;;;;;;;;5197127;27;21513;-76
2022/02/11 15:17:30;;;;;;;;;6.00;3.00;;;;;;;;5177690;27;21831;-77
2022/02/11 15:19:56;;;;;;;;;9.25;8.00;;;;;;;;5196904;27;11607;-76
2022/02/11 15:22:21;;;;;;;;;10.75;8.00;;;;;;;;5196971;27;12182;-76
2022/02/11 15:24:48;;;;;;;;;11.25;9.25;;;;;;;;5196170;27;16258;-75
2022/02/11 15:27:14;;;;;;;;;9.50;9.00;;;;;;;;5197622;27;10792;-76
2022/02/11 15:29:40;;;;;;;;;8.50;7.00;;;;;;;;5196331;27;21443;-75
2022/02/11 15:32:06;;;;;;;;;10.00;8.75;;;;;;;;5197977;27;11379;-76
2022/02/11 15:34:31;;;;;;;;;12.75;9.50;;;;;;;;5197586;27;21506;-76
2022/02/11 15:36:56;;;;;;;;;9.75;9.50;;;;;;;;5198216;27;11063;-77
2022/02/11 15:39:21;;;;;;;;;8.75;8.75;;;;;;;;5198491;27;16224;-78
2022/02/11 15:41:48;;;;;;;;;8.50;8.50;;;;;;;;5198479;27;12410;-77
2022/02/11 15:44:13;;;;;;;;;10.00;8.75;;;;;;;;5179329;27;10441;-83
2022/02/11 15:46:41;;;;;;;;;10.00;8.00;;;;;;;;5198403;27;21344;-75
2022/02/11 15:49:06;;;;;;;;;15.25;10.00;;;;;;;;5198316;27;8790;-75
2022/02/11 15:51:31;;;;;;;;;12.00;9.00;;;;;;;;5178297;27;22959;-76
2022/02/11 15:53:56;;;;;;;;;9.50;8.75;;;;;;;;5197368;27;21860;-77
2022/02/11 15:56:22;;;;;;;;;9.00;9.00;;;;;;;;5170177;27;21661;-75
2022/02/11 15:58:47;;;;;;;;;9.25;6.25;;;;;;;;5164993;27;10607;-81
2022/02/11 16:01:15;;;;;;;;;8.50;8.50;;;;;;;;5184864;27;10577;-75
2022/02/11 16:03:41;;;;;;;;;12.25;10.75;;;;;;;;5184748;27;11380;-77
2022/02/11 16:06:06;;;;;;;;;11.25;10.75;;;;;;;;5184272;27;22337;-79
2022/02/11 16:08:31;;;;;;;;;11.50;10.50;;;;;;;;5184678;27;8854;-78
2022/02/11 16:10:57;;;;;;;;;14.00;11.00;;;;;;;;5184589;27;8785;-74
2022/02/11 16:13:24;;;;;;;;;10.25;8.00;;;;;;;;5184439;27;11609;-78
2022/02/11 16:15:52;;;;;;;;;10.75;9.50;;;;;;;;5164898;27;23849;-75
2022/02/11 16:18:23;;;;;;;;;12.75;12.75;;;;;;;;5183652;27;12153;-76
2022/02/11 16:20:48;;;;;;;;;12.50;11.75;;;;;;;;5182851;27;21689;-76
2022/02/11 16:23:15;;;;;;;;;45.00;37.00;;;;;;;;5183561;27;11513;-76
2022/02/11 16:25:40;;;;;;;;;43.00;36.00;;;;;;;;5183928;27;13318;-77
2022/02/11 16:28:08;;;;;;;;;17.00;15.75;;;;;;;;5165054;27;11513;-78
2022/02/11 16:30:34;;;;;;;;;16.75;15.00;;;;;;;;5164431;27;15496;-76
2022/02/11 16:32:59;;;;;;;;;14.00;14.00;;;;;;;;5183561;27;12330;-77
2022/02/11 16:35:25;;;;;;;;;13.00;13.00;;;;;;;;5164748;27;10935;-75
2022/02/11 16:37:50;;;;;;;;;15.25;13.25;;;;;;;;5184019;27;8821;-76
2022/02/11 16:40:16;;;;;;;;;16.25;13.75;;;;;;;;5183531;27;11431;-77
2022/02/11 16:42:41;;;;;;;;;17.00;17.00;;;;;;;;5184290;27;10461;-76
2022/02/11 16:45:07;;;;;;;;;21.50;21.50;;;;;;;;5183708;27;11373;-76
2022/02/11 16:47:33;;;;;;;;;20.25;19.25;;;;;;;;5182090;27;13679;-75
2022/02/11 16:49:59;;;;;;;;;26.50;18.75;;;;;;;;5182137;27;12467;-75
2022/02/11 16:52:24;;;;;;;;;20.25;18.75;;;;;;;;5180309;27;10076;-76
2022/02/11 16:54:50;;;;;;;;;17.50;16.75;;;;;;;;5175498;27;8891;-75
2022/02/11 16:57:15;;;;;;;;;21.50;19.50;;;;;;;;5159690;27;12523;-76
2022/02/11 16:59:41;;;;;;;;;19.00;17.00;;;;;;;;5181346;27;13501;-75
2022/02/11 17:02:07;;;;;;;;;23.75;20.00;;;;;;;;5181048;27;13271;-74
2022/02/11 17:04:33;;;;;;;;;18.50;18.50;;;;;;;;5181455;27;12263;-76
2022/02/11 17:06:58;;;;;;;;;22.00;17.75;;;;;;;;5175185;27;13385;-77
2022/02/11 17:09:23;;;;;;;;;18.25;18.00;;;;;;;;5180644;27;13571;-76
2022/02/11 17:11:49;;;;;;;;;19.00;15.75;;;;;;;;5181273;27;14348;-75
2022/02/11 17:14:14;;;;;;;;;21.75;19.50;;;;;;;;5178193;27;11883;-77
2022/02/11 17:16:39;;;;;;;;;16.75;16.50;;;;;;;;5178304;27;15311;-77
2022/02/11 17:19:04;;;;;;;;;19.50;18.25;;;;;;;;5181502;27;10329;-76
2022/02/11 17:21:30;;;;;;;;;18.00;16.00;;;;;;;;5178421;27;11524;-74
2022/02/11 17:23:56;;;;;;;;;20.25;20.25;;;;;;;;5161699;27;11393;-75
2022/02/11 17:26:21;;;;;;;;;21.50;20.25;;;;;;;;5180950;27;13305;-76
2022/02/11 17:28:46;;;;;;;;;25.00;23.50;;;;;;;;5178138;27;9449;-75
2022/02/11 17:31:12;;;;;;;;;24.50;23.75;;;;;;;;5179107;27;12652;-77
2022/02/11 17:33:37;;;;;;;;;23.00;20.75;;;;;;;;5163335;27;11589;-75
2022/02/11 17:36:02;;;;;;;;;21.25;21.00;;;;;;;;5180980;27;10332;-75
2022/02/11 17:38:28;;;;;;;;;21.50;21.50;;;;;;;;5170780;27;11417;-75
2022/02/11 17:40:53;;;;;;;;;24.00;22.00;;;;;;;;5172305;27;8874;-74
2022/02/11 17:43:19;;;;;;;;;24.50;22.75;;;;;;;;5171905;27;11713;-76
2022/02/11 17:45:45;;;;;;;;;20.75;18.50;;;;;;;;5169827;27;10293;-75
2022/02/11 17:48:11;;;;;;;;;24.50;24.25;;;;;;;;5169673;27;12405;-77
2022/02/11 17:50:36;;;;;;;;;33.00;28.00;;;;;;;;5170239;27;13258;-78
2022/02/11 17:53:01;;;;;;;;;26.00;23.00;;;;;;;;5172307;27;13234;-80
2022/02/11 17:55:28;;;;;;;;;15.75;14.25;;;;;;;;5171826;27;9559;-80
2022/02/11 17:57:53;;;;;;;;;22.00;17.75;;;;;;;;5163317;27;14366;-78
2022/02/11 18:00:19;;;;;;;;;22.00;17.00;;;;;;;;5164798;27;12721;-76
2022/02/11 18:02:44;;;;;;;;;14.25;14.25;;;;;;;;5166523;27;8790;-76
2022/02/11 18:05:09;;;;;;;;;15.25;14.25;;;;;;;;5171313;27;13646;-73
2022/02/11 18:07:40;;;;;;;;;20.25;14.50;;;;;;;;5168546;27;8894;-74
2022/02/11 18:10:10;;;;;;;;;28.75;24.00;;;;;;;;5170367;27;14614;-76
2022/02/11 18:12:36;;;;;;;;;19.00;19.00;;;;;;;;5160903;27;12493;-75
2022/02/11 18:15:02;;;;;;;;;21.75;21.75;;;;;;;;5170923;27;12228;-85
2022/02/11 18:17:30;;;;;;;;;19.00;18.00;;;;;;;;5169244;27;13562;-85